Time;durP1;ratioP1;P1;durP2;ratioP2;P2;SDS_P1;SDS_P2;PMS_P1;PMS_P2;Temp;Humidity;BMP_temperature;BMP_pressure;BME280_temperature;BME280_humidity;BME280_pressure;Samples;Min_cycle;Max_cycle;Signal;HPM_P1;HPM_P2
2022/08/29 00:02:19;;;;;;;;;;;589.70;2432.00;;;;;;5087335;28;19924;-56
2022/08/29 00:04:45;;;;;;;;;;;589.70;2432.00;;;;;;5087422;28;19915;-54
2022/08/29 00:07:10;;;;;;;;;;;589.60;2432.00;;;;;;5087060;28;20286;-57
2022/08/29 00:09:36;;;;;;;;;;;589.50;2432.00;;;;;;5087322;28;19916;-56
2022/08/29 00:12:02;;;;;;;;;;;589.50;2432.00;;;;;;5087126;28;19912;-54
2022/08/29 00:14:28;;;;;;;;;;;589.40;2432.00;;;;;;5078073;28;19954;-55
2022/08/29 00:16:53;;;;;;;;;;;589.30;2432.00;;;;;;5073510;28;20332;-56
2022/08/29 00:19:19;;;;;;;;;;;589.30;2432.00;;;;;;5073866;28;19908;-54
2022/08/29 00:21:45;;;;;;;;;;;589.20;2432.00;;;;;;5073297;28;19908;-55
2022/08/29 00:24:10;;;;;;;;;;;589.30;2432.00;;;;;;5073536;28;19909;-55
2022/08/29 00:26:36;;;;;;;;;;;589.10;2432.00;;;;;;5073483;28;19912;-55
2022/08/29 00:29:01;;;;;;;;;;;589.00;2432.00;;;;;;5073653;28;19971;-55
2022/08/29 00:31:27;;;;;;;;;;;589.10;2432.00;;;;;;5073651;28;20377;-55
2022/08/29 00:33:53;;;;;;;;;;;589.00;2432.00;;;;;;5073331;28;19965;-55
2022/08/29 00:36:18;;;;;;;;;;;589.10;2432.00;;;;;;5073414;28;19909;-55
2022/08/29 00:38:44;;;;;;;;;;;589.00;2432.00;;;;;;5073286;28;19920;-55
2022/08/29 00:41:09;;;;;;;;;;;589.00;2432.00;;;;;;5073407;28;19909;-55
2022/08/29 00:43:36;;;;;;;;;;;588.90;2432.00;;;;;;5073280;28;20013;-55
2022/08/29 00:46:10;;;;;;;;;;;589.00;2432.00;;;;;;5073203;28;19909;-55
2022/08/29 00:48:37;;;;;;;;;;;589.00;2432.00;;;;;;5073421;28;19954;-55
2022/08/29 00:51:06;;;;;;;;;;;588.90;2432.00;;;;;;5072998;28;19943;-56
2022/08/29 00:53:40;;;;;;;;;;;588.90;2432.00;;;;;;5072989;28;19915;-56
2022/08/29 00:56:07;;;;;;;;;;;588.90;2432.00;;;;;;5073095;28;19962;-55
2022/08/29 00:58:52;;;;;;;;;;;588.90;2432.00;;;;;;5072971;28;20438;-55
2022/08/29 01:01:17;;;;;;;;;;;588.80;2432.00;;;;;;5073042;28;19962;-56
2022/08/29 01:03:43;;;;;;;;;;;564.10;2432.00;;;;;;5072405;28;19928;-55
2022/08/29 01:06:10;;;;;;;;;;;564.10;2432.00;;;;;;5072876;28;19908;-55
2022/08/29 01:08:35;;;;;;;;;;;564.00;2432.00;;;;;;5072707;28;19915;-56
2022/08/29 01:13:47;;;;;;;;;;;564.00;2432.00;;;;;;5072785;28;19955;-55
2022/08/29 01:16:13;;;;;;;;;;;563.90;2432.00;;;;;;5072577;28;19915;-55
2022/08/29 01:18:41;;;;;;;;;;;563.80;2432.00;;;;;;5072744;28;19909;-56
2022/08/29 01:21:12;;;;;;;;;;;563.70;2432.00;;;;;;5072521;28;20340;-54
2022/08/29 01:23:42;;;;;;;;;;;563.90;2432.00;;;;;;5072474;28;19917;-55
2022/08/29 01:26:09;;;;;;;;;;;563.90;2432.00;;;;;;5071514;28;19947;-56
2022/08/29 01:28:38;;;;;;;;;;;563.80;2432.00;;;;;;5072357;28;20332;-55
2022/08/29 01:31:03;;;;;;;;;;;563.70;2432.00;;;;;;5072332;28;19923;-56
2022/08/29 01:33:49;;;;;;;;;;;563.70;2432.00;;;;;;5072307;28;19920;-56
2022/08/29 01:36:16;;;;;;;;;;;563.70;2432.00;;;;;;5072058;28;19912;-55
2022/08/29 01:38:42;;;;;;;;;;;563.70;2432.00;;;;;;5072245;28;19912;-55
2022/08/29 01:41:09;;;;;;;;;;;563.70;2432.00;;;;;;5072131;28;19909;-55
2022/08/29 01:43:42;;;;;;;;;;;563.70;2432.00;;;;;;5071895;28;19927;-56
2022/08/29 01:46:09;;;;;;;;;;;563.70;2432.00;;;;;;5072046;28;19908;-56
2022/08/29 01:48:36;;;;;;;;;;;563.60;2432.00;;;;;;5071844;28;19932;-55
2022/08/29 01:51:01;;;;;;;;;;;563.70;2432.00;;;;;;5071947;28;19909;-56
2022/08/29 01:53:27;;;;;;;;;;;563.60;2432.00;;;;;;5071861;28;19970;-55
2022/08/29 01:55:53;;;;;;;;;;;563.70;2432.00;;;;;;5071976;28;19915;-55
2022/08/29 01:58:18;;;;;;;;;;;563.70;2432.00;;;;;;5071925;28;19930;-55
2022/08/29 02:00:44;;;;;;;;;;;563.70;2432.00;;;;;;5071843;28;20322;-56
2022/08/29 02:03:09;;;;;;;;;;;563.60;2432.00;;;;;;5071520;28;19931;-56
2022/08/29 02:05:35;;;;;;;;;;;563.60;2432.00;;;;;;5071760;28;19962;-55
2022/08/29 02:08:01;;;;;;;;;;;563.60;2432.00;;;;;;5071742;28;20483;-55
2022/08/29 02:10:26;;;;;;;;;;;563.60;2432.00;;;;;;5071768;28;19915;-56
2022/08/29 02:12:52;;;;;;;;;;;563.60;2432.00;;;;;;5071419;28;19908;-56
2022/08/29 02:15:18;;;;;;;;;;;563.80;2432.00;;;;;;5071694;28;19908;-56
2022/08/29 02:17:44;;;;;;;;;;;563.60;2432.00;;;;;;5071294;28;20286;-56
2022/08/29 02:20:10;;;;;;;;;;;563.70;2432.00;;;;;;5071369;28;19908;-56
2022/08/29 02:22:37;;;;;;;;;;;563.60;2432.00;;;;;;5071004;28;20349;-56
2022/08/29 02:25:40;;;;;;;;;;;563.60;2432.00;;;;;;5071218;28;19966;-54
2022/08/29 02:27:51;;;;;;;;;;;563.60;2432.00;;;;;;5071354;28;19913;-56
2022/08/29 02:30:17;;;;;;;;;;;563.60;2432.00;;;;;;5071220;28;19909;-55
2022/08/29 02:32:43;;;;;;;;;;;563.60;2432.00;;;;;;5071066;28;19916;-55
2022/08/29 02:35:09;;;;;;;;;;;563.50;2432.00;;;;;;5071349;28;19930;-55
2022/08/29 02:37:34;;;;;;;;;;;563.40;2432.00;;;;;;5070978;28;19920;-55
2022/08/29 02:40:00;;;;;;;;;;;563.40;2432.00;;;;;;5071253;28;19999;-55
2022/08/29 02:42:26;;;;;;;;;;;563.40;2432.00;;;;;;5071022;28;19954;-56
2022/08/29 02:44:51;;;;;;;;;;;563.30;2432.00;;;;;;5071159;28;19908;-56
2022/08/29 02:47:17;;;;;;;;;;;563.40;2432.00;;;;;;5071141;28;19940;-55
2022/08/29 02:49:42;;;;;;;;;;;563.30;2432.00;;;;;;5070977;28;19916;-55
2022/08/29 02:52:08;;;;;;;;;;;563.20;2432.00;;;;;;5071277;28;19909;-54
2022/08/29 02:54:34;;;;;;;;;;;538.50;2406.40;;;;;;5071031;28;20301;-55
2022/08/29 02:56:59;;;;;;;;;;;563.20;2432.00;;;;;;5071205;28;19908;-55
2022/08/29 02:59:26;;;;;;;;;;;538.40;2406.40;;;;;;5070899;28;20286;-55
2022/08/29 03:01:52;;;;;;;;;;;538.40;2406.40;;;;;;5070559;28;20437;-55
2022/08/29 03:04:18;;;;;;;;;;;538.30;2406.40;;;;;;5071320;28;19952;-56
2022/08/29 03:06:43;;;;;;;;;;;538.30;2406.40;;;;;;5070910;28;20313;-55
2022/08/29 03:09:09;;;;;;;;;;;538.30;2406.40;;;;;;5071070;28;20381;-56
2022/08/29 03:11:34;;;;;;;;;;;538.40;2406.40;;;;;;5070727;28;19952;-55
2022/08/29 03:14:00;;;;;;;;;;;538.40;2406.40;;;;;;5071095;28;19909;-55
2022/08/29 03:16:26;;;;;;;;;;;538.30;2406.40;;;;;;5070755;28;19909;-55
2022/08/29 03:18:51;;;;;;;;;;;538.10;2406.40;;;;;;5070707;28;19919;-55
2022/08/29 03:21:19;;;;;;;;;;;538.10;2406.40;;;;;;5070723;28;19909;-55
2022/08/29 03:23:44;;;;;;;;;;;538.00;2406.40;;;;;;5070548;28;19920;-55
2022/08/29 03:26:10;;;;;;;;;;;538.00;2406.40;;;;;;5070997;28;19915;-55
2022/08/29 03:28:35;;;;;;;;;;;538.00;2406.40;;;;;;5070855;28;19908;-55
2022/08/29 03:31:01;;;;;;;;;;;538.00;2406.40;;;;;;5070631;28;19916;-56
2022/08/29 03:33:26;;;;;;;;;;;538.00;2406.40;;;;;;5070563;28;19961;-55
2022/08/29 03:35:52;;;;;;;;;;;538.10;2406.40;;;;;;5070714;28;20047;-56
2022/08/29 03:38:17;;;;;;;;;;;538.00;2406.40;;;;;;5070709;28;19916;-55
2022/08/29 03:40:43;;;;;;;;;;;538.00;2406.40;;;;;;5070717;28;19915;-55
2022/08/29 03:43:09;;;;;;;;;;;538.00;2406.40;;;;;;5070706;28;19924;-55
2022/08/29 03:45:34;;;;;;;;;;;538.00;2406.40;;;;;;5070534;28;19912;-55
2022/08/29 03:48:00;;;;;;;;;;;537.90;2406.40;;;;;;5070585;28;19909;-54
2022/08/29 03:50:26;;;;;;;;;;;537.80;2406.40;;;;;;5073919;28;19923;-54
2022/08/29 03:52:51;;;;;;;;;;;537.80;2406.40;;;;;;5074227;28;20007;-56
2022/08/29 03:55:18;;;;;;;;;;;537.80;2406.40;;;;;;5074241;28;19908;-55
2022/08/29 03:57:44;;;;;;;;;;;537.70;2406.40;;;;;;5074034;28;19997;-55
2022/08/29 04:00:14;;;;;;;;;;;537.70;2406.40;;;;;;5074177;28;20366;-55
2022/08/29 04:02:41;;;;;;;;;;;537.70;2406.40;;;;;;5073469;28;20362;-56
2022/08/29 04:05:07;;;;;;;;;;;537.80;2406.40;;;;;;5074189;28;19909;-54
2022/08/29 04:07:52;;;;;;;;;;;537.70;2406.40;;;;;;5073441;28;19916;-56
2022/08/29 04:10:20;;;;;;;;;;;537.70;2406.40;;;;;;5074139;28;19962;-55
2022/08/29 04:12:45;;;;;;;;;;;537.90;2406.40;;;;;;5073706;28;19908;-55
2022/08/29 04:15:11;;;;;;;;;;;537.80;2406.40;;;;;;5073872;28;20311;-54
2022/08/29 04:17:37;;;;;;;;;;;537.80;2406.40;;;;;;5073819;28;19915;-56
2022/08/29 04:20:04;;;;;;;;;;;537.90;2406.40;;;;;;5073563;28;19916;-55
2022/08/29 04:22:29;;;;;;;;;;;538.00;2406.40;;;;;;5073637;28;19962;-54
2022/08/29 04:24:55;;;;;;;;;;;537.90;2406.40;;;;;;5073608;28;19909;-55
2022/08/29 04:27:20;;;;;;;;;;;537.90;2406.40;;;;;;5073760;28;20930;-55
2022/08/29 04:29:47;;;;;;;;;;;538.00;2406.40;;;;;;5073295;28;19909;-55
2022/08/29 04:32:14;;;;;;;;;;;538.00;2406.40;;;;;;5073129;28;20301;-56
2022/08/29 04:34:39;;;;;;;;;;;537.90;2406.40;;;;;;5073696;28;19916;-55
2022/08/29 04:37:05;;;;;;;;;;;538.00;2406.40;;;;;;5073165;28;19910;-54
2022/08/29 04:39:30;;;;;;;;;;;538.20;2406.40;;;;;;5073468;28;19915;-56
2022/08/29 04:41:56;;;;;;;;;;;538.40;2406.40;;;;;;5073295;28;19968;-56
2022/08/29 04:44:21;;;;;;;;;;;538.50;2406.40;;;;;;5073167;28;20362;-55
2022/08/29 04:46:47;;;;;;;;;;;538.50;2406.40;;;;;;5073326;28;19908;-55
2022/08/29 04:49:12;;;;;;;;;;;538.50;2406.40;;;;;;5073009;28;20329;-55
2022/08/29 04:51:39;;;;;;;;;;;563.20;2432.00;;;;;;5073104;28;19961;-55
2022/08/29 04:54:05;;;;;;;;;;;563.20;2432.00;;;;;;5072989;28;19959;-54
2022/08/29 04:56:31;;;;;;;;;;;563.40;2432.00;;;;;;5072851;28;19909;-55
2022/08/29 04:58:57;;;;;;;;;;;563.40;2432.00;;;;;;5073046;28;19909;-54
2022/08/29 05:01:24;;;;;;;;;;;563.60;2432.00;;;;;;5072572;28;20355;-55
2022/08/29 05:03:52;;;;;;;;;;;563.60;2432.00;;;;;;5071818;28;19927;-55
2022/08/29 05:06:18;;;;;;;;;;;563.80;2432.00;;;;;;5061428;28;19916;-55
2022/08/29 05:08:44;;;;;;;;;;;564.00;2432.00;;;;;;5060493;28;20413;-56
2022/08/29 05:11:11;;;;;;;;;;;588.80;2432.00;;;;;;5072741;28;19916;-54
2022/08/29 05:13:37;;;;;;;;;;;589.20;2432.00;;;;;;5072700;28;19909;-56
2022/08/29 05:16:06;;;;;;;;;;;589.30;2432.00;;;;;;5072571;28;19915;-55
2022/08/29 05:18:32;;;;;;;;;;;589.70;2432.00;;;;;;5068719;28;20402;-56
2022/08/29 05:20:58;;;;;;;;;;;614.60;2432.00;;;;;;5052900;28;19955;-56
2022/08/29 05:23:23;;;;;;;;;;;615.20;2432.00;;;;;;5052132;28;19924;-56
2022/08/29 05:25:57;;;;;;;;;;;665.60;2432.00;;;;;;5052473;28;20003;-54
2022/08/29 05:28:23;;;;;;;;;;;;;;;;;;5052400;28;19915;-54
2022/08/29 05:30:49;;;;;;;;;;;666.50;2432.00;;;;;;5052351;28;20274;-54
2022/08/29 05:33:15;;;;;;;;;;;691.40;2432.00;;;;;;5051721;28;19970;-55
2022/08/29 05:35:41;;;;;;;;;;;691.60;2432.00;;;;;;5052096;28;20424;-55
2022/08/29 05:38:07;;;;;;;;;;;691.30;2432.00;;;;;;5052024;28;19909;-54
2022/08/29 05:40:34;;;;;;;;;;;666.20;2432.00;;;;;;5052142;28;19909;-55
2022/08/29 05:43:00;;;;;;;;;;;665.90;2432.00;;;;;;5052074;28;20362;-55
2022/08/29 05:45:25;;;;;;;;;;;665.60;2432.00;;;;;;5052224;28;19909;-55
2022/08/29 05:47:51;;;;;;;;;;;640.90;2432.00;;;;;;5051937;28;20372;-56
2022/08/29 05:50:17;;;;;;;;;;;665.60;2432.00;;;;;;5052022;28;19913;-55
2022/08/29 05:52:43;;;;;;;;;;;640.60;2432.00;;;;;;5051900;28;19908;-55
2022/08/29 05:55:08;;;;;;;;;;;640.40;2432.00;;;;;;5051994;28;19909;-56
2022/08/29 05:57:34;;;;;;;;;;;640.60;2432.00;;;;;;5051654;28;19913;-56
2022/08/29 06:00:00;;;;;;;;;;;640.30;2432.00;;;;;;5051814;28;20394;-56
2022/08/29 06:02:26;;;;;;;;;;;640.20;2432.00;;;;;;5051240;28;19925;-56
2022/08/29 06:04:51;;;;;;;;;;;640.20;2432.00;;;;;;5051765;28;19988;-54
2022/08/29 06:07:17;;;;;;;;;;;640.40;2432.00;;;;;;5051812;28;20355;-56
2022/08/29 06:09:43;;;;;;;;;;;665.80;2432.00;;;;;;5051420;28;19956;-56
2022/08/29 06:12:09;;;;;;;;;;;666.30;2432.00;;;;;;5051263;28;19909;-56
2022/08/29 06:14:35;;;;;;;;;;;691.90;2432.00;;;;;;5051310;28;19944;-56
2022/08/29 06:17:02;;;;;;;;;;;717.40;2432.00;;;;;;5051518;28;19951;-56
2022/08/29 06:19:30;;;;;;;;;;;742.40;2380.80;;;;;;5051537;28;19909;-56
2022/08/29 06:21:55;;;;;;;;;;;742.90;2278.40;;;;;;5051079;28;20362;-56
2022/08/29 06:24:21;;;;;;;;;;;768.20;2150.40;;;;;;5051363;28;19915;-56
2022/08/29 06:26:47;;;;;;;;;;;793.80;2048.00;;;;;;5051484;28;20004;-56
2022/08/29 06:29:13;;;;;;;;;;;794.50;1971.20;;;;;;5051122;28;19909;-56
2022/08/29 06:31:39;;;;;;;;;;;819.80;1868.80;;;;;;5051274;28;20002;-56
2022/08/29 06:34:05;;;;;;;;;;;845.50;1792.00;;;;;;5051098;28;20338;-57
2022/08/29 06:36:31;;;;;;;;;;;870.40;1740.80;;;;;;5051235;28;19908;-58
2022/08/29 06:38:57;;;;;;;;;;;871.10;1689.60;;;;;;5051202;28;20369;-56
2022/08/29 06:41:24;;;;;;;;;;;896.10;1612.80;;;;;;5051094;28;20270;-57
2022/08/29 06:43:50;;;;;;;;;;;921.70;1587.20;;;;;;5051066;28;19923;-56
2022/08/29 06:46:23;;;;;;;;;;;896.90;1536.00;;;;;;5050945;28;19909;-55
2022/08/29 06:48:49;;;;;;;;;;;921.80;1561.60;;;;;;5051188;28;20009;-56
2022/08/29 06:51:15;;;;;;;;;;;947.30;1484.80;;;;;;5051026;28;19909;-57
2022/08/29 06:53:41;;;;;;;;;;;948.10;1459.20;;;;;;5051039;28;20478;-57
2022/08/29 06:56:06;;;;;;;;;;;998.40;1433.60;;;;;;5051030;28;19909;-57
2022/08/29 06:58:33;;;;;;;;;;;998.60;1382.40;;;;;;5050727;28;19915;-56
2022/08/29 07:01:03;;;;;;;;;;;973.70;1382.40;;;;;;5050981;28;19913;-57
2022/08/29 07:03:29;;;;;;;;;;;973.60;1382.40;;;;;;5050854;28;19924;-57
2022/08/29 07:05:55;;;;;;;;;;;999.10;1331.20;;;;;;5059860;28;19913;-58
2022/08/29 07:08:22;;;;;;;;;;;1049.80;1331.20;;;;;;5060211;28;19935;-57
2022/08/29 07:10:48;;;;;;;;;;;1050.50;1254.40;;;;;;5055872;28;20311;-57
2022/08/29 07:13:13;;;;;;;;;;;1075.60;1203.20;;;;;;5050723;28;19959;-58
2022/08/29 07:15:39;;;;;;;;;;;1024.20;1280.00;;;;;;5050788;28;20322;-57
2022/08/29 07:18:04;;;;;;;;;;;1024.10;1280.00;;;;;;5048482;28;19920;-56
2022/08/29 07:20:30;;;;;;;;;;;1024.60;1228.80;;;;;;5049038;28;19995;-59
2022/08/29 07:22:56;;;;;;;;;;;1024.30;1254.40;;;;;;5048379;28;19975;-57
2022/08/29 07:25:21;;;;;;;;;;;973.70;1305.60;;;;;;5052254;28;19935;-58
2022/08/29 07:27:47;;;;;;;;;;;973.50;1305.60;;;;;;5052671;28;19948;-57
2022/08/29 07:30:15;;;;;;;;;;;999.30;1280.00;;;;;;5052258;28;19978;-57
2022/08/29 07:32:43;;;;;;;;;;;1024.50;1228.80;;;;;;5051997;28;19913;-57
2022/08/29 07:35:10;;;;;;;;;;;1050.00;1228.80;;;;;;5052268;28;19917;-57
2022/08/29 07:37:35;;;;;;;;;;;1075.20;1177.60;;;;;;5052066;28;19913;-57
2022/08/29 07:40:01;;;;;;;;;;;1101.30;1126.40;;;;;;5052442;28;20278;-58
2022/08/29 07:42:26;;;;;;;;;;;1126.90;1100.80;;;;;;5052170;28;19917;-57
2022/08/29 07:44:52;;;;;;;;;;;1126.70;1100.80;;;;;;5051491;28;19998;-57
2022/08/29 07:47:18;;;;;;;;;;;1075.30;1152.00;;;;;;5052141;28;19916;-58
2022/08/29 07:49:43;;;;;;;;;;;1101.50;1100.80;;;;;;5052152;28;19913;-59
2022/08/29 07:52:09;;;;;;;;;;;1075.60;1126.40;;;;;;5052451;28;19936;-57
2022/08/29 07:54:34;;;;;;;;;;;1100.80;1126.40;;;;;;5052077;28;19938;-58
2022/08/29 07:57:00;;;;;;;;;;;1126.60;1126.40;;;;;;5051665;28;20278;-57
2022/08/29 07:59:25;;;;;;;;;;;1152.00;1075.20;;;;;;5051771;28;19916;-57
2022/08/29 08:01:52;;;;;;;;;;;1100.90;1126.40;;;;;;5051793;28;19916;-58
2022/08/29 08:04:18;;;;;;;;;;;1152.20;1049.60;;;;;;5051887;28;19917;-59
2022/08/29 08:06:43;;;;;;;;;;;1152.20;1049.60;;;;;;5050727;28;19947;-57
2022/08/29 08:09:09;;;;;;;;;;;1152.10;1075.20;;;;;;5052026;28;19909;-58
2022/08/29 08:11:35;;;;;;;;;;;1177.80;1024.00;;;;;;5051300;28;20293;-56
2022/08/29 08:14:02;;;;;;;;;;;1178.00;1024.00;;;;;;5052011;28;19909;-59
2022/08/29 08:16:27;;;;;;;;;;;1203.30;1024.00;;;;;;5051953;28;19912;-59
2022/08/29 08:18:53;;;;;;;;;;;1152.70;1024.00;;;;;;5051429;28;20007;-57
2022/08/29 08:21:19;;;;;;;;;;;1152.10;1049.60;;;;;;5051712;28;20446;-58
2022/08/29 08:23:44;;;;;;;;;;;1126.70;1075.20;;;;;;5050854;28;19921;-63
2022/08/29 08:26:11;;;;;;;;;;;1126.50;1100.80;;;;;;5051712;28;19961;-63
2022/08/29 08:28:37;;;;;;;;;;;1101.00;1100.80;;;;;;5051455;28;20003;-63
2022/08/29 08:31:04;;;;;;;;;;;1050.50;1177.60;;;;;;5051380;28;19909;-64
2022/08/29 08:33:29;;;;;;;;;;;1050.40;1177.60;;;;;;5051517;28;19924;-62
2022/08/29 08:35:56;;;;;;;;;;;1101.10;1152.00;;;;;;5050255;28;19913;-63
2022/08/29 08:38:22;;;;;;;;;;;1101.60;1126.40;;;;;;5051124;28;19908;-64
2022/08/29 08:40:55;;;;;;;;;;;1050.00;1203.20;;;;;;5052511;28;19908;-62
2022/08/29 08:43:24;;;;;;;;;;;998.60;1280.00;;;;;;5053372;28;20626;-62
2022/08/29 08:45:49;;;;;;;;;;;973.60;1280.00;;;;;;5053288;28;20250;-62
2022/08/29 08:48:15;;;;;;;;;;;947.40;1331.20;;;;;;5053062;28;19980;-62
2022/08/29 08:50:46;;;;;;;;;;;921.80;1408.00;;;;;;5053262;28;19913;-62
2022/08/29 08:53:12;;;;;;;;;;;871.30;1433.60;;;;;;5052913;28;19909;-63
2022/08/29 08:55:42;;;;;;;;;;;896.50;1433.60;;;;;;5053146;28;20011;-62
2022/08/29 08:58:18;;;;;;;;;;;896.00;1459.20;;;;;;5053083;28;19996;-62
2022/08/29 09:00:45;;;;;;;;;;;896.10;1484.80;;;;;;5052811;28;19909;-62
2022/08/29 09:03:13;;;;;;;;;;;870.90;1510.40;;;;;;5052668;28;19925;-62
2022/08/29 09:05:58;;;;;;;;;;;871.30;1484.80;;;;;;5052886;28;19909;-62
2022/08/29 09:08:26;;;;;;;;;;;871.10;1536.00;;;;;;5052699;28;19909;-62
2022/08/29 09:10:54;;;;;;;;;;;871.00;1536.00;;;;;;5052608;28;19917;-63
2022/08/29 09:13:32;;;;;;;;;;;870.80;1510.40;;;;;;5052852;28;20274;-62
2022/08/29 09:16:00;;;;;;;;;;;870.60;1510.40;;;;;;5052894;28;20251;-62
2022/08/29 09:18:28;;;;;;;;;;;870.60;1536.00;;;;;;5052659;28;19974;-62
2022/08/29 09:20:54;;;;;;;;;;;870.50;1561.60;;;;;;5052400;28;19909;-62
2022/08/29 09:23:26;;;;;;;;;;;845.70;1587.20;;;;;;5052479;28;19917;-62
2022/08/29 09:25:51;;;;;;;;;;;870.50;1510.40;;;;;;5052436;28;20359;-63
2022/08/29 09:28:17;;;;;;;;;;;845.40;1510.40;;;;;;5052525;28;19931;-61
2022/08/29 09:30:45;;;;;;;;;;;845.70;1510.40;;;;;;5052448;28;19916;-62
2022/08/29 09:33:10;;;;;;;;;;;870.50;1510.40;;;;;;5050936;28;20263;-62
2022/08/29 09:35:40;;;;;;;;;;;870.40;1536.00;;;;;;5052136;28;19909;-62
2022/08/29 09:38:07;;;;;;;;;;;845.50;1484.80;;;;;;5052244;28;20018;-62
2022/08/29 09:40:42;;;;;;;;;;;845.20;1484.80;;;;;;5052346;28;19909;-62
2022/08/29 09:43:15;;;;;;;;;;;845.70;1459.20;;;;;;5052038;28;19917;-62
2022/08/29 09:46:00;;;;;;;;;;;845.40;1510.40;;;;;;5052358;28;19909;-62
2022/08/29 09:48:25;;;;;;;;;;;845.70;1510.40;;;;;;5051761;28;19909;-62
2022/08/29 09:50:56;;;;;;;;;;;845.60;1510.40;;;;;;5052119;28;19931;-62
2022/08/29 09:53:21;;;;;;;;;;;845.70;1484.80;;;;;;5051702;28;20000;-63
2022/08/29 09:55:47;;;;;;;;;;;845.40;1510.40;;;;;;5051897;28;20393;-61
2022/08/29 09:58:19;;;;;;;;;;;845.40;1536.00;;;;;;5051742;28;19909;-62
2022/08/29 10:01:01;;;;;;;;;;;845.40;1459.20;;;;;;5051845;28;19955;-62
2022/08/29 10:03:29;;;;;;;;;;;845.50;1459.20;;;;;;5051370;28;20011;-62
2022/08/29 10:06:27;;;;;;;;;;;845.70;1459.20;;;;;;5051553;28;19919;-62
2022/08/29 10:08:57;;;;;;;;;;;845.70;1459.20;;;;;;5029465;28;19996;-62
2022/08/29 10:11:44;;;;;;;;;;;845.20;1510.40;;;;;;5029445;28;20400;-63
2022/08/29 10:14:16;;;;;;;;;;;845.40;1536.00;;;;;;5029516;28;19975;-61
2022/08/29 10:16:52;;;;;;;;;;;845.50;1484.80;;;;;;5029282;28;19920;-62
2022/08/29 10:19:21;;;;;;;;;;;845.10;1510.40;;;;;;5029497;28;20008;-61
2022/08/29 10:21:52;;;;;;;;;;;819.70;1587.20;;;;;;5029481;28;19910;-62
2022/08/29 10:24:17;;;;;;;;;;;794.50;1587.20;;;;;;5029370;28;19966;-62
2022/08/29 10:26:46;;;;;;;;;;;819.60;1612.80;;;;;;5029203;28;20365;-62
2022/08/29 10:29:25;;;;;;;;;;;819.80;1561.60;;;;;;5029156;28;20282;-62
2022/08/29 10:32:02;;;;;;;;;;;819.80;1561.60;;;;;;5029081;28;19924;-62
2022/08/29 10:34:34;;;;;;;;;;;819.40;1561.60;;;;;;5029382;28;19908;-61
2022/08/29 10:37:05;;;;;;;;;;;819.70;1587.20;;;;;;5029208;28;20327;-62
2022/08/29 10:39:38;;;;;;;;;;;819.80;1536.00;;;;;;5029194;28;19909;-62
2022/08/29 10:42:08;;;;;;;;;;;819.80;1612.80;;;;;;5028660;28;20020;-61
2022/08/29 10:44:40;;;;;;;;;;;819.30;1612.80;;;;;;5040657;28;19909;-61
2022/08/29 10:47:14;;;;;;;;;;;819.30;1612.80;;;;;;5056705;28;20011;-61
2022/08/29 10:49:41;;;;;;;;;;;794.20;1612.80;;;;;;5060127;28;19960;-61
2022/08/29 10:52:25;;;;;;;;;;;794.00;1638.40;;;;;;5059926;28;20684;-60
2022/08/29 10:54:59;;;;;;;;;;;794.50;1612.80;;;;;;5058200;28;20263;-60
2022/08/29 10:57:57;;;;;;;;;;;794.50;1638.40;;;;;;5059717;28;19916;-61
2022/08/29 11:00:26;;;;;;;;;;;819.30;1638.40;;;;;;5035556;28;19923;-61
2022/08/29 11:03:11;;;;;;;;;;;819.20;1638.40;;;;;;5037109;28;20401;-61
2022/08/29 11:05:41;;;;;;;;;;;819.30;1664.00;;;;;;5038673;28;20281;-61
2022/08/29 11:08:10;;;;;;;;;;;819.60;1638.40;;;;;;5035072;28;19919;-61
2022/08/29 11:10:39;;;;;;;;;;;794.50;1664.00;;;;;;5048221;28;20378;-61
2022/08/29 11:13:23;;;;;;;;;;;794.20;1689.60;;;;;;5048540;28;20350;-61
2022/08/29 11:16:07;;;;;;;;;;;794.00;1689.60;;;;;;5048552;28;20081;-61
2022/08/29 11:18:38;;;;;;;;;;;793.70;1689.60;;;;;;5046021;28;19954;-62
2022/08/29 11:21:11;;;;;;;;;;;794.00;1715.20;;;;;;5045473;28;20372;-61
2022/08/29 11:23:40;;;;;;;;;;;794.10;1689.60;;;;;;5034690;28;20051;-63
2022/08/29 11:26:21;;;;;;;;;;;793.80;1689.60;;;;;;5033575;28;19920;-62
2022/08/29 11:29:05;;;;;;;;;;;794.50;1689.60;;;;;;5033221;28;19924;-60
2022/08/29 11:31:37;;;;;;;;;;;794.00;1689.60;;;;;;5036238;28;20525;-62
2022/08/29 11:34:13;;;;;;;;;;;794.20;1664.00;;;;;;5033839;28;19913;-62
2022/08/29 11:36:39;;;;;;;;;;;794.50;1689.60;;;;;;5051617;28;19916;-62
2022/08/29 11:39:07;;;;;;;;;;;794.40;1689.60;;;;;;5056024;28;20355;-62
2022/08/29 11:41:37;;;;;;;;;;;793.70;1689.60;;;;;;5057619;28;19908;-63
2022/08/29 11:44:16;;;;;;;;;;;793.80;1689.60;;;;;;5057552;28;20052;-62
2022/08/29 11:46:43;;;;;;;;;;;794.00;1689.60;;;;;;5057965;28;19913;-62
2022/08/29 11:49:38;;;;;;;;;;;793.70;1715.20;;;;;;5055615;28;19916;-62
2022/08/29 11:52:07;;;;;;;;;;;794.00;1689.60;;;;;;5054398;28;19921;-61
2022/08/29 11:54:35;;;;;;;;;;;794.40;1664.00;;;;;;5058412;28;19909;-60
2022/08/29 11:57:01;;;;;;;;;;;794.50;1638.40;;;;;;5058138;28;19927;-61
2022/08/29 11:59:45;;;;;;;;;;;794.30;1664.00;;;;;;5059529;28;19908;-60
2022/08/29 12:02:29;;;;;;;;;;;819.20;1664.00;;;;;;5058916;28;20015;-61
2022/08/29 12:04:58;;;;;;;;;;;819.60;1638.40;;;;;;5059489;28;19917;-62
2022/08/29 12:07:50;;;;;;;;;;;793.70;1715.20;;;;;;5057991;28;19913;-62
2022/08/29 12:10:19;;;;;;;;;;;768.90;1689.60;;;;;;5059729;28;19909;-62
2022/08/29 12:12:46;;;;;;;;;;;794.00;1689.60;;;;;;5061564;28;19916;-62
2022/08/29 12:15:26;;;;;;;;;;;794.20;1664.00;;;;;;5062525;28;19965;-62
2022/08/29 12:18:14;;;;;;;;;;;794.20;1689.60;;;;;;5062584;28;19916;-61
2022/08/29 12:20:42;;;;;;;;;;;794.40;1664.00;;;;;;5061171;28;19908;-62
2022/08/29 12:23:10;;;;;;;;;;;794.00;1664.00;;;;;;5062871;28;19916;-61
2022/08/29 12:25:43;;;;;;;;;;;794.00;1664.00;;;;;;5062768;28;19966;-61
2022/08/29 12:28:27;;;;;;;;;;;794.20;1715.20;;;;;;5061971;28;19909;-62
2022/08/29 12:31:11;;;;;;;;;;;794.30;1664.00;;;;;;5062252;28;19909;-63
2022/08/29 12:33:42;;;;;;;;;;;794.50;1664.00;;;;;;5062849;28;19962;-61
2022/08/29 12:36:08;;;;;;;;;;;794.50;1664.00;;;;;;5058895;28;20019;-62
2022/08/29 12:38:52;;;;;;;;;;;794.00;1664.00;;;;;;5059555;28;20007;-62
2022/08/29 12:41:17;;;;;;;;;;;768.90;1664.00;;;;;;5060331;28;20263;-62
2022/08/29 12:43:44;;;;;;;;;;;793.70;1689.60;;;;;;5060909;28;19916;-62
2022/08/29 12:46:25;;;;;;;;;;;793.60;1715.20;;;;;;5060420;28;19909;-62
2022/08/29 12:48:57;;;;;;;;;;;768.90;1689.60;;;;;;5061945;28;19996;-62
2022/08/29 12:51:33;;;;;;;;;;;793.70;1715.20;;;;;;5060653;28;19909;-60
2022/08/29 12:53:58;;;;;;;;;;;793.70;1740.80;;;;;;5060196;28;19939;-60
2022/08/29 12:56:25;;;;;;;;;;;768.70;1740.80;;;;;;5062583;28;20410;-61
2022/08/29 12:58:50;;;;;;;;;;;768.70;1740.80;;;;;;5061855;28;19908;-62
2022/08/29 13:01:36;;;;;;;;;;;768.60;1715.20;;;;;;5060739;28;20281;-61
2022/08/29 13:04:17;;;;;;;;;;;768.70;1715.20;;;;;;5059946;28;20016;-62
2022/08/29 13:06:49;;;;;;;;;;;768.60;1740.80;;;;;;5060299;28;20277;-61
2022/08/29 13:09:36;;;;;;;;;;;768.70;1715.20;;;;;;5060822;28;20424;-62
2022/08/29 13:12:20;;;;;;;;;;;793.60;1740.80;;;;;;5062214;28;20358;-62
2022/08/29 13:14:46;;;;;;;;;;;793.80;1715.20;;;;;;5062146;28;19916;-61
2022/08/29 13:17:14;;;;;;;;;;;793.70;1715.20;;;;;;5061415;28;20481;-63
2022/08/29 13:19:39;;;;;;;;;;;768.90;1715.20;;;;;;5060452;28;20292;-62
2022/08/29 13:22:05;;;;;;;;;;;793.60;1715.20;;;;;;5061896;28;19912;-60
2022/08/29 13:24:31;;;;;;;;;;;768.80;1715.20;;;;;;5060957;28;19920;-62
2022/08/29 13:26:59;;;;;;;;;;;793.60;1715.20;;;;;;5060353;28;19936;-62
2022/08/29 13:29:34;;;;;;;;;;;768.70;1715.20;;;;;;5061911;28;20554;-61
2022/08/29 13:32:12;;;;;;;;;;;768.60;1715.20;;;;;;5061716;28;19912;-62
2022/08/29 13:34:57;;;;;;;;;;;768.50;1740.80;;;;;;5061781;28;19913;-62
2022/08/29 13:37:27;;;;;;;;;;;768.80;1715.20;;;;;;5060640;28;20446;-62
2022/08/29 13:39:53;;;;;;;;;;;793.60;1740.80;;;;;;5061689;28;19912;-62
2022/08/29 13:42:21;;;;;;;;;;;793.60;1715.20;;;;;;5060002;28;19924;-60
2022/08/29 13:44:52;;;;;;;;;;;793.60;1689.60;;;;;;5060563;28;19912;-61
2022/08/29 13:47:18;;;;;;;;;;;768.60;1715.20;;;;;;5059893;28;20007;-61
2022/08/29 13:49:43;;;;;;;;;;;768.70;1715.20;;;;;;5060884;28;20394;-61
2022/08/29 13:52:09;;;;;;;;;;;768.40;1689.60;;;;;;5052121;28;19949;-61